sensor_id;sensor_type;location;lat;lon;timestamp;P1;durP1;ratioP1;P2;durP2;ratioP2
48327;SDS011;34136;51.022;7.082;2023-03-20T10:47:09;11.38;;;7.65;;
48327;SDS011;34136;51.022;7.082;2023-03-20T10:50:05;10.82;;;7.80;;
48327;SDS011;34136;51.022;7.082;2023-03-20T10:52:59;12.55;;;7.45;;
48327;SDS011;34136;51.022;7.082;2023-03-20T10:55:47;13.82;;;7.60;;
48327;SDS011;34136;51.022;7.082;2023-03-20T10:58:36;14.15;;;7.65;;
48327;SDS011;34136;51.022;7.082;2023-03-20T11:01:24;14.18;;;7.60;;
48327;SDS011;34136;51.022;7.082;2023-03-20T11:04:11;12.18;;;7.25;;
48327;SDS011;34136;51.022;7.082;2023-03-20T11:12:51;11.13;;;6.72;;
48327;SDS011;34136;51.022;7.082;2023-03-20T11:15:38;11.98;;;7.00;;
48327;SDS011;34136;51.022;7.082;2023-03-20T11:18:24;14.07;;;6.80;;
48327;SDS011;34136;51.022;7.082;2023-03-20T11:21:16;12.80;;;6.13;;
48327;SDS011;34136;51.022;7.082;2023-03-20T11:24:10;14.13;;;6.38;;
48327;SDS011;34136;51.022;7.082;2023-03-20T11:27:17;9.20;;;5.53;;
48327;SDS011;34136;51.022;7.082;2023-03-20T11:32:58;10.13;;;4.70;;
48327;SDS011;34136;51.022;7.082;2023-03-20T11:35:46;10.38;;;3.95;;
48327;SDS011;34136;51.022;7.082;2023-03-20T11:38:32;12.23;;;4.55;;
48327;SDS011;34136;51.022;7.082;2023-03-20T11:41:40;9.23;;;4.22;;
48327;SDS011;34136;51.022;7.082;2023-03-20T11:44:32;8.32;;;3.92;;
48327;SDS011;34136;51.022;7.082;2023-03-20T11:47:25;6.22;;;2.92;;
48327;SDS011;34136;51.022;7.082;2023-03-20T11:50:33;9.15;;;2.97;;
48327;SDS011;34136;51.022;7.082;2023-03-20T11:53:30;9.25;;;3.50;;
48327;SDS011;34136;51.022;7.082;2023-03-20T11:56:59;8.73;;;3.13;;
48327;SDS011;34136;51.022;7.082;2023-03-20T11:59:45;7.60;;;2.95;;
48327;SDS011;34136;51.022;7.082;2023-03-20T12:02:32;5.97;;;3.05;;
48327;SDS011;34136;51.022;7.082;2023-03-20T12:05:34;20.35;;;4.18;;
48327;SDS011;34136;51.022;7.082;2023-03-20T12:08:26;7.57;;;3.15;;
48327;SDS011;34136;51.022;7.082;2023-03-20T12:11:20;9.05;;;2.67;;
48327;SDS011;34136;51.022;7.082;2023-03-20T12:33:11;7.22;;;3.03;;
48327;SDS011;34136;51.022;7.082;2023-03-20T12:36:16;6.78;;;3.03;;
48327;SDS011;34136;51.022;7.082;2023-03-20T12:39:15;8.20;;;3.40;;
48327;SDS011;34136;51.022;7.082;2023-03-20T12:45:12;8.27;;;3.55;;
48327;SDS011;34136;51.022;7.082;2023-03-20T12:54:15;9.20;;;3.83;;
48327;SDS011;34136;51.022;7.082;2023-03-20T13:00:23;11.95;;;4.22;;
48327;SDS011;34136;51.022;7.082;2023-03-20T13:07:18;8.13;;;3.10;;
48327;SDS011;34136;51.022;7.082;2023-03-20T16:18:48;8.75;;;3.10;;
48327;SDS011;34136;51.022;7.082;2023-03-20T16:21:37;7.30;;;2.42;;
48327;SDS011;34136;51.022;7.082;2023-03-20T16:24:26;10.90;;;2.88;;
48327;SDS011;34136;51.022;7.082;2023-03-20T16:27:16;7.78;;;2.53;;
48327;SDS011;34136;51.022;7.082;2023-03-20T16:30:16;7.00;;;2.50;;
48327;SDS011;34136;51.022;7.082;2023-03-20T16:33:11;9.10;;;2.60;;
48327;SDS011;34136;51.022;7.082;2023-03-20T16:36:00;8.63;;;2.35;;
48327;SDS011;34136;51.022;7.082;2023-03-20T16:38:53;6.20;;;2.47;;
48327;SDS011;34136;51.022;7.082;2023-03-20T16:42:01;9.65;;;3.30;;
48327;SDS011;34136;51.022;7.082;2023-03-20T16:45:03;9.98;;;2.80;;
48327;SDS011;34136;51.022;7.082;2023-03-20T16:50:56;10.35;;;3.00;;
48327;SDS011;34136;51.022;7.082;2023-03-20T16:53:56;9.15;;;2.65;;
48327;SDS011;34136;51.022;7.082;2023-03-20T16:56:44;11.52;;;2.75;;
48327;SDS011;34136;51.022;7.082;2023-03-20T16:59:38;10.95;;;3.10;;
48327;SDS011;34136;51.022;7.082;2023-03-20T17:02:29;9.70;;;2.70;;
48327;SDS011;34136;51.022;7.082;2023-03-20T17:05:19;11.57;;;2.90;;
48327;SDS011;34136;51.022;7.082;2023-03-20T17:08:08;6.65;;;3.05;;
48327;SDS011;34136;51.022;7.082;2023-03-20T17:10:59;10.30;;;3.08;;
48327;SDS011;34136;51.022;7.082;2023-03-20T17:16:37;11.20;;;4.55;;
48327;SDS011;34136;51.022;7.082;2023-03-20T17:19:23;10.55;;;3.67;;
48327;SDS011;34136;51.022;7.082;2023-03-20T17:22:11;10.82;;;3.25;;
48327;SDS011;34136;51.022;7.082;2023-03-20T17:25:06;11.40;;;3.47;;
48327;SDS011;34136;51.022;7.082;2023-03-20T17:27:53;7.47;;;2.75;;
48327;SDS011;34136;51.022;7.082;2023-03-20T17:30:39;11.68;;;2.90;;
48327;SDS011;34136;51.022;7.082;2023-03-20T17:33:28;11.23;;;2.92;;
48327;SDS011;34136;51.022;7.082;2023-03-20T17:36:25;11.25;;;2.88;;
48327;SDS011;34136;51.022;7.082;2023-03-20T17:39:17;11.90;;;3.15;;
48327;SDS011;34136;51.022;7.082;2023-03-20T17:42:14;11.00;;;3.42;;
48327;SDS011;34136;51.022;7.082;2023-03-20T17:45:08;10.73;;;3.50;;
48327;SDS011;34136;51.022;7.082;2023-03-20T17:47:58;10.43;;;3.22;;
48327;SDS011;34136;51.022;7.082;2023-03-20T17:50:44;10.15;;;3.70;;
48327;SDS011;34136;51.022;7.082;2023-03-20T17:53:32;9.30;;;3.05;;
48327;SDS011;34136;51.022;7.082;2023-03-20T17:56:18;11.73;;;3.45;;
48327;SDS011;34136;51.022;7.082;2023-03-20T17:59:05;7.25;;;3.13;;
48327;SDS011;34136;51.022;7.082;2023-03-20T18:01:55;8.13;;;3.03;;
48327;SDS011;34136;51.022;7.082;2023-03-20T18:04:41;10.50;;;3.38;;
48327;SDS011;34136;51.022;7.082;2023-03-20T18:07:28;10.15;;;3.50;;
48327;SDS011;34136;51.022;7.082;2023-03-20T18:10:18;10.77;;;5.05;;
48327;SDS011;34136;51.022;7.082;2023-03-20T18:13:10;14.20;;;4.60;;
48327;SDS011;34136;51.022;7.082;2023-03-20T18:15:57;11.95;;;4.32;;
48327;SDS011;34136;51.022;7.082;2023-03-20T18:18:43;6.88;;;3.53;;
48327;SDS011;34136;51.022;7.082;2023-03-20T18:21:29;12.60;;;3.38;;
48327;SDS011;34136;51.022;7.082;2023-03-20T18:24:15;10.38;;;2.83;;
48327;SDS011;34136;51.022;7.082;2023-03-20T18:27:01;11.05;;;3.50;;
48327;SDS011;34136;51.022;7.082;2023-03-20T18:29:48;8.77;;;3.28;;
48327;SDS011;34136;51.022;7.082;2023-03-20T18:32:34;10.68;;;3.00;;
48327;SDS011;34136;51.022;7.082;2023-03-20T18:35:20;6.30;;;3.00;;
48327;SDS011;34136;51.022;7.082;2023-03-20T18:38:15;6.38;;;2.33;;
48327;SDS011;34136;51.022;7.082;2023-03-20T18:41:01;9.63;;;2.80;;
48327;SDS011;34136;51.022;7.082;2023-03-20T18:43:48;11.25;;;3.92;;
48327;SDS011;34136;51.022;7.082;2023-03-20T18:46:34;11.95;;;3.92;;
48327;SDS011;34136;51.022;7.082;2023-03-20T18:49:20;11.80;;;3.63;;
48327;SDS011;34136;51.022;7.082;2023-03-20T18:52:07;11.35;;;5.18;;
48327;SDS011;34136;51.022;7.082;2023-03-20T18:54:53;10.77;;;3.88;;
48327;SDS011;34136;51.022;7.082;2023-03-20T18:57:40;8.77;;;3.63;;
48327;SDS011;34136;51.022;7.082;2023-03-20T19:00:27;11.45;;;4.95;;
48327;SDS011;34136;51.022;7.082;2023-03-20T19:03:19;15.50;;;9.75;;
48327;SDS011;34136;51.022;7.082;2023-03-20T19:06:12;13.70;;;6.10;;
48327;SDS011;34136;51.022;7.082;2023-03-20T19:09:02;12.13;;;5.63;;
48327;SDS011;34136;51.022;7.082;2023-03-20T19:11:49;12.40;;;4.10;;
48327;SDS011;34136;51.022;7.082;2023-03-20T19:14:38;12.77;;;4.60;;
48327;SDS011;34136;51.022;7.082;2023-03-20T19:17:33;10.35;;;4.10;;
48327;SDS011;34136;51.022;7.082;2023-03-20T19:20:30;9.82;;;5.57;;
48327;SDS011;34136;51.022;7.082;2023-03-20T19:23:20;11.40;;;4.53;;
48327;SDS011;34136;51.022;7.082;2023-03-20T19:26:37;15.07;;;6.05;;
48327;SDS011;34136;51.022;7.082;2023-03-20T19:29:23;11.38;;;5.35;;
48327;SDS011;34136;51.022;7.082;2023-03-20T19:32:10;11.18;;;5.25;;
48327;SDS011;34136;51.022;7.082;2023-03-20T19:34:56;12.75;;;5.30;;
48327;SDS011;34136;51.022;7.082;2023-03-20T19:37:42;13.25;;;5.72;;
48327;SDS011;34136;51.022;7.082;2023-03-20T19:43:17;17.80;;;6.88;;
48327;SDS011;34136;51.022;7.082;2023-03-20T19:46:11;17.13;;;5.30;;
48327;SDS011;34136;51.022;7.082;2023-03-20T19:48:58;10.27;;;4.90;;
48327;SDS011;34136;51.022;7.082;2023-03-20T19:51:47;12.07;;;5.10;;
48327;SDS011;34136;51.022;7.082;2023-03-20T19:54:34;11.98;;;4.93;;
48327;SDS011;34136;51.022;7.082;2023-03-20T19:57:21;10.50;;;5.10;;
48327;SDS011;34136;51.022;7.082;2023-03-20T20:00:07;9.52;;;4.68;;
48327;SDS011;34136;51.022;7.082;2023-03-20T20:02:54;11.40;;;4.65;;
48327;SDS011;34136;51.022;7.082;2023-03-20T20:05:40;13.38;;;4.20;;
48327;SDS011;34136;51.022;7.082;2023-03-20T20:08:27;7.82;;;4.45;;
48327;SDS011;34136;51.022;7.082;2023-03-20T20:11:14;11.90;;;4.63;;
48327;SDS011;34136;51.022;7.082;2023-03-20T20:14:01;10.45;;;4.28;;
48327;SDS011;34136;51.022;7.082;2023-03-20T20:16:48;12.88;;;4.45;;
48327;SDS011;34136;51.022;7.082;2023-03-20T20:19:34;9.40;;;4.03;;
48327;SDS011;34136;51.022;7.082;2023-03-20T20:22:20;13.13;;;4.35;;
48327;SDS011;34136;51.022;7.082;2023-03-20T20:25:08;9.05;;;3.92;;
48327;SDS011;34136;51.022;7.082;2023-03-20T20:27:55;12.20;;;4.95;;
48327;SDS011;34136;51.022;7.082;2023-03-20T20:30:46;9.50;;;5.00;;
48327;SDS011;34136;51.022;7.082;2023-03-20T20:33:33;14.10;;;5.80;;
48327;SDS011;34136;51.022;7.082;2023-03-20T20:36:19;14.15;;;5.68;;
48327;SDS011;34136;51.022;7.082;2023-03-20T20:39:06;14.32;;;5.15;;
48327;SDS011;34136;51.022;7.082;2023-03-20T20:41:52;12.05;;;5.38;;
48327;SDS011;34136;51.022;7.082;2023-03-20T20:44:38;11.25;;;5.88;;
48327;SDS011;34136;51.022;7.082;2023-03-20T20:47:25;16.20;;;8.73;;
48327;SDS011;34136;51.022;7.082;2023-03-20T20:50:15;15.50;;;7.40;;
48327;SDS011;34136;51.022;7.082;2023-03-20T20:53:03;16.63;;;8.15;;
48327;SDS011;34136;51.022;7.082;2023-03-20T20:55:50;14.90;;;7.63;;
48327;SDS011;34136;51.022;7.082;2023-03-20T20:58:36;16.52;;;8.50;;
48327;SDS011;34136;51.022;7.082;2023-03-20T21:01:22;16.75;;;7.68;;
48327;SDS011;34136;51.022;7.082;2023-03-20T21:04:09;13.45;;;7.25;;
48327;SDS011;34136;51.022;7.082;2023-03-20T21:06:55;14.80;;;6.53;;
48327;SDS011;34136;51.022;7.082;2023-03-20T21:09:41;16.20;;;6.70;;
48327;SDS011;34136;51.022;7.082;2023-03-20T21:12:27;12.60;;;5.88;;
48327;SDS011;34136;51.022;7.082;2023-03-20T21:15:14;10.93;;;5.95;;
48327;SDS011;34136;51.022;7.082;2023-03-20T21:18:00;15.48;;;7.45;;
48327;SDS011;34136;51.022;7.082;2023-03-20T21:20:47;15.52;;;6.20;;
48327;SDS011;34136;51.022;7.082;2023-03-20T21:23:34;15.82;;;6.82;;
48327;SDS011;34136;51.022;7.082;2023-03-20T21:26:20;17.45;;;8.60;;
48327;SDS011;34136;51.022;7.082;2023-03-20T21:29:06;19.73;;;10.55;;
48327;SDS011;34136;51.022;7.082;2023-03-20T21:31:52;17.75;;;8.95;;
48327;SDS011;34136;51.022;7.082;2023-03-20T21:34:38;15.90;;;7.60;;
48327;SDS011;34136;51.022;7.082;2023-03-20T21:37:25;14.90;;;6.57;;
48327;SDS011;34136;51.022;7.082;2023-03-20T21:40:12;16.02;;;6.25;;
48327;SDS011;34136;51.022;7.082;2023-03-20T21:42:59;15.18;;;6.45;;
48327;SDS011;34136;51.022;7.082;2023-03-20T21:45:45;13.27;;;5.60;;
48327;SDS011;34136;51.022;7.082;2023-03-20T21:48:34;10.55;;;4.55;;
48327;SDS011;34136;51.022;7.082;2023-03-20T21:51:20;12.88;;;5.03;;
48327;SDS011;34136;51.022;7.082;2023-03-20T21:54:09;9.57;;;4.10;;
48327;SDS011;34136;51.022;7.082;2023-03-20T21:56:55;10.32;;;3.83;;
48327;SDS011;34136;51.022;7.082;2023-03-20T21:59:43;10.95;;;4.13;;
48327;SDS011;34136;51.022;7.082;2023-03-20T22:02:30;8.98;;;3.75;;
48327;SDS011;34136;51.022;7.082;2023-03-20T22:05:16;11.32;;;3.85;;
48327;SDS011;34136;51.022;7.082;2023-03-20T22:08:03;8.70;;;3.40;;
48327;SDS011;34136;51.022;7.082;2023-03-20T22:10:50;7.40;;;3.65;;
48327;SDS011;34136;51.022;7.082;2023-03-20T22:13:39;6.13;;;3.00;;
48327;SDS011;34136;51.022;7.082;2023-03-20T22:16:26;7.25;;;2.88;;
48327;SDS011;34136;51.022;7.082;2023-03-20T22:19:13;6.22;;;3.10;;
48327;SDS011;34136;51.022;7.082;2023-03-20T22:22:00;8.60;;;3.38;;
48327;SDS011;34136;51.022;7.082;2023-03-20T22:24:47;7.72;;;3.20;;
48327;SDS011;34136;51.022;7.082;2023-03-20T22:27:35;11.32;;;3.40;;
48327;SDS011;34136;51.022;7.082;2023-03-20T22:30:21;7.25;;;3.08;;
48327;SDS011;34136;51.022;7.082;2023-03-20T22:33:08;10.48;;;3.30;;
48327;SDS011;34136;51.022;7.082;2023-03-20T22:35:54;11.13;;;3.70;;
48327;SDS011;34136;51.022;7.082;2023-03-20T22:38:43;11.43;;;3.42;;
48327;SDS011;34136;51.022;7.082;2023-03-20T22:41:30;8.77;;;3.53;;
48327;SDS011;34136;51.022;7.082;2023-03-20T22:44:16;10.02;;;3.28;;
48327;SDS011;34136;51.022;7.082;2023-03-20T22:47:02;6.55;;;3.13;;
48327;SDS011;34136;51.022;7.082;2023-03-20T22:49:49;8.80;;;3.25;;
48327;SDS011;34136;51.022;7.082;2023-03-20T22:52:36;9.23;;;3.45;;
48327;SDS011;34136;51.022;7.082;2023-03-20T22:55:22;7.40;;;3.28;;
48327;SDS011;34136;51.022;7.082;2023-03-20T22:58:10;10.68;;;3.50;;
48327;SDS011;34136;51.022;7.082;2023-03-20T23:00:58;6.43;;;3.22;;
48327;SDS011;34136;51.022;7.082;2023-03-20T23:03:44;8.38;;;3.25;;
48327;SDS011;34136;51.022;7.082;2023-03-20T23:06:30;8.70;;;3.40;;
48327;SDS011;34136;51.022;7.082;2023-03-20T23:09:16;9.90;;;3.10;;
48327;SDS011;34136;51.022;7.082;2023-03-20T23:12:03;11.52;;;3.50;;
48327;SDS011;34136;51.022;7.082;2023-03-20T23:14:49;9.25;;;3.13;;
48327;SDS011;34136;51.022;7.082;2023-03-20T23:17:35;5.53;;;3.05;;
48327;SDS011;34136;51.022;7.082;2023-03-20T23:20:22;13.60;;;3.45;;
48327;SDS011;34136;51.022;7.082;2023-03-20T23:23:08;7.50;;;3.20;;
48327;SDS011;34136;51.022;7.082;2023-03-20T23:26:10;14.75;;;3.58;;
48327;SDS011;34136;51.022;7.082;2023-03-20T23:28:59;10.85;;;3.78;;
48327;SDS011;34136;51.022;7.082;2023-03-20T23:31:45;8.30;;;3.17;;
48327;SDS011;34136;51.022;7.082;2023-03-20T23:34:32;12.40;;;3.20;;
48327;SDS011;34136;51.022;7.082;2023-03-20T23:37:18;9.70;;;3.70;;
48327;SDS011;34136;51.022;7.082;2023-03-20T23:40:04;7.55;;;2.90;;
48327;SDS011;34136;51.022;7.082;2023-03-20T23:42:51;8.82;;;2.97;;
48327;SDS011;34136;51.022;7.082;2023-03-20T23:45:37;11.40;;;2.85;;
48327;SDS011;34136;51.022;7.082;2023-03-20T23:48:23;7.72;;;2.85;;
48327;SDS011;34136;51.022;7.082;2023-03-20T23:51:09;8.88;;;2.92;;
48327;SDS011;34136;51.022;7.082;2023-03-20T23:53:55;6.70;;;2.80;;
48327;SDS011;34136;51.022;7.082;2023-03-20T23:56:42;9.85;;;2.60;;
48327;SDS011;34136;51.022;7.082;2023-03-20T23:59:31;9.43;;;3.00;;
